Time;durP1;ratioP1;P1;durP2;ratioP2;P2;SDS_P1;SDS_P2;PMS_P1;PMS_P2;Temp;Humidity;BMP_temperature;BMP_pressure;BME280_temperature;BME280_humidity;BME280_pressure;Samples;Min_cycle;Max_cycle;Signal;HPM_P1;HPM_P2
2023/07/17 00:03:29;;;;;;;4.57;4.15;;;19.30;99.90;;;20.13;81.83;98114.84;10357097;28;20228;-76
2023/07/17 00:08:34;;;;;;;5.00;4.00;;;19.10;99.90;;;20.08;81.08;98123.34;10351647;28;20227;-77
2023/07/17 00:13:37;;;;;;;5.10;3.80;;;19.00;99.90;;;20.00;81.73;98117.97;10352745;28;20230;-76
2023/07/17 00:18:40;;;;;;;4.57;3.65;;;19.00;99.90;;;19.83;82.66;98124.47;10354247;28;20234;-76
2023/07/17 00:23:45;;;;;;;4.45;3.65;;;18.80;99.90;;;19.76;85.13;98116.53;10347048;28;20306;-76
2023/07/17 00:28:48;;;;;;;4.70;3.95;;;18.80;99.90;;;19.66;85.04;98117.16;10351935;28;20214;-76
2023/07/17 00:33:51;;;;;;;6.10;3.95;;;18.80;99.90;;;19.62;85.70;98110.09;10352273;28;20317;-76
2023/07/17 00:38:56;;;;;;;5.13;4.10;;;18.70;99.90;;;19.59;85.75;98100.50;10351179;28;20234;-76
2023/07/17 00:43:59;;;;;;;4.00;3.60;;;18.70;99.90;;;19.50;85.16;98117.56;10348979;28;20330;-76
2023/07/17 00:49:03;;;;;;;4.50;3.38;;;18.50;99.90;;;19.40;84.89;98124.25;10350270;28;20223;-75
2023/07/17 00:54:11;;;;;;;6.13;3.95;;;18.50;99.90;;;19.37;85.50;98124.13;10355034;28;20245;-77
2023/07/17 00:59:15;;;;;;;6.32;3.72;;;18.40;99.90;;;19.25;84.96;98109.13;10352039;28;20222;-75
2023/07/17 01:04:18;;;;;;;4.78;4.10;;;18.30;99.90;;;19.18;86.55;98143.50;10351607;28;20226;-76
2023/07/17 01:09:23;;;;;;;4.55;3.78;;;18.20;99.90;;;19.03;87.05;98138.78;10353344;28;20280;-76
2023/07/17 01:14:26;;;;;;;4.05;3.65;;;18.10;99.90;;;19.02;87.70;98136.13;10349447;28;20234;-76
2023/07/17 01:19:29;;;;;;;3.80;3.45;;;18.00;99.90;;;18.78;87.13;98134.59;10352967;28;20234;-76
2023/07/17 01:24:34;;;;;;;3.90;3.40;;;17.90;99.90;;;18.83;87.71;98137.34;10359215;28;20256;-76
2023/07/17 01:29:37;;;;;;;4.95;3.88;;;17.90;99.90;;;18.88;88.51;98140.91;10345841;28;20685;-75
2023/07/17 01:34:41;;;;;;;4.80;3.63;;;18.00;99.90;;;18.94;87.93;98148.84;10353760;28;20269;-76
2023/07/17 01:39:46;;;;;;;5.13;4.03;;;17.90;99.90;;;18.74;89.25;98132.75;10357157;28;20245;-76
2023/07/17 01:44:49;;;;;;;4.72;4.20;;;17.80;99.90;;;18.53;86.99;98119.13;10357529;28;20222;-76
2023/07/17 01:49:52;;;;;;;4.72;3.83;;;17.60;99.90;;;18.58;87.54;98151.22;10359884;28;20433;-76
2023/07/17 01:54:57;;;;;;;5.10;4.13;;;17.70;99.90;;;18.64;88.79;98138.47;10365512;28;20683;-76
2023/07/17 02:00:00;;;;;;;6.22;3.95;;;17.80;99.90;;;18.75;89.05;98136.22;10362905;28;20244;-76
2023/07/17 02:05:04;;;;;;;4.70;4.25;;;17.90;99.90;;;18.79;86.58;98144.13;10359896;28;20301;-75
2023/07/17 02:10:10;;;;;;;4.50;3.80;;;17.80;99.90;;;18.62;88.06;98155.66;10360888;28;20226;-76
2023/07/17 02:15:14;;;;;;;4.88;4.38;;;17.70;99.90;;;18.59;88.63;98130.53;10357962;28;20353;-76
2023/07/17 02:20:17;;;;;;;4.80;4.30;;;17.70;99.90;;;18.55;88.77;98133.03;10361978;28;20304;-76
2023/07/17 02:25:22;;;;;;;4.35;3.75;;;17.60;99.90;;;18.57;87.89;98146.88;10358134;28;20254;-76
2023/07/17 02:30:25;;;;;;;4.72;4.10;;;17.70;99.90;;;18.63;89.26;98141.91;10358250;28;20254;-76
2023/07/17 02:35:29;;;;;;;4.22;3.83;;;17.70;99.90;;;18.64;90.52;98148.81;10361400;28;20320;-76
2023/07/17 02:40:33;;;;;;;5.03;4.20;;;17.80;99.90;;;18.71;89.49;98160.22;10359764;28;20640;-76
2023/07/17 02:45:37;;;;;;;4.90;4.20;;;17.70;99.90;;;18.75;89.97;98178.53;10364317;28;20250;-75
2023/07/17 02:50:41;;;;;;;4.90;4.40;;;17.80;99.90;;;18.69;91.36;98196.47;10358054;28;20276;-76
2023/07/17 02:55:45;;;;;;;4.28;3.83;;;17.80;99.90;;;18.73;91.07;98182.75;10358907;28;20306;-76
2023/07/17 03:00:49;;;;;;;5.72;4.47;;;17.80;99.90;;;18.74;92.10;98192.31;10357858;28;20233;-76
2023/07/17 03:05:52;;;;;;;4.95;4.45;;;17.80;99.90;;;18.65;90.94;98192.00;10362486;28;20777;-76
2023/07/17 03:10:57;;;;;;;4.47;4.03;;;17.70;99.90;;;18.60;90.33;98184.09;10361754;28;20241;-76
2023/07/17 03:16:00;;;;;;;7.57;4.45;;;17.70;99.90;;;18.62;91.82;98194.50;10363383;28;20790;-76
2023/07/17 03:21:04;;;;;;;4.35;4.05;;;17.80;99.90;;;18.59;91.28;98186.63;10358851;28;20241;-76
2023/07/17 03:26:09;;;;;;;6.22;4.10;;;17.70;99.90;;;18.54;90.82;98189.09;10359890;28;20252;-76
2023/07/17 03:31:12;;;;;;;4.13;3.72;;;17.70;99.90;;;18.60;90.62;98194.47;10359837;28;20346;-76
2023/07/17 03:36:16;;;;;;;5.63;4.60;;;17.70;99.90;;;18.57;92.60;98196.06;10359791;28;20568;-76
2023/07/17 03:41:21;;;;;;;4.53;4.13;;;17.70;99.90;;;18.43;94.00;98196.53;10360293;28;20556;-76
2023/07/17 03:46:24;;;;;;;6.57;4.72;;;17.70;99.90;;;18.43;96.33;98206.88;10356949;28;20276;-76
2023/07/17 03:51:27;;;;;;;4.82;4.30;;;17.80;99.90;;;18.60;94.78;98214.28;10355021;28;20264;-79
2023/07/17 03:56:32;;;;;;;4.97;4.30;;;17.80;99.90;;;18.48;95.17;98229.44;10359955;28;20557;-76
2023/07/17 04:01:35;;;;;;;5.22;4.57;;;17.70;99.90;;;18.36;94.95;98206.63;10361221;28;20230;-76
2023/07/17 04:06:38;;;;;;;5.93;4.88;;;17.60;99.90;;;18.40;95.75;98209.38;10359502;28;20261;-75
2023/07/17 04:11:45;;;;;;;4.97;4.47;;;17.60;99.90;;;18.24;95.09;98209.69;10358134;28;20234;-77
2023/07/17 04:16:49;;;;;;;5.80;5.20;;;17.50;99.90;;;18.23;95.04;98223.47;10354822;28;20221;-78
2023/07/17 04:21:53;;;;;;;6.25;4.75;;;17.50;99.90;;;18.30;95.96;98222.84;10366318;28;20281;-76
2023/07/17 04:26:58;;;;;;;5.18;4.68;;;17.50;99.90;;;18.37;96.77;98227.41;10347294;28;20309;-78
2023/07/17 04:32:01;;;;;;;5.22;4.72;;;17.60;99.90;;;18.32;96.42;98239.31;10355384;28;20648;-78
2023/07/17 04:37:04;;;;;;;5.32;4.45;;;17.50;99.90;;;18.45;94.60;98241.44;10359989;28;20676;-77
2023/07/17 04:42:10;;;;;;;5.40;4.90;;;17.60;99.90;;;18.54;93.33;98239.97;10363628;28;20268;-78
2023/07/17 04:47:13;;;;;;;4.80;4.28;;;17.70;99.90;;;18.67;93.95;98253.38;10348448;28;20211;-77
2023/07/17 04:52:17;;;;;;;5.25;4.20;;;17.80;99.90;;;18.88;92.03;98262.66;10353030;28;20234;-77
2023/07/17 04:57:22;;;;;;;7.53;4.63;;;18.00;99.90;;;19.07;91.15;98264.13;10362606;28;20246;-77
2023/07/17 05:02:25;;;;;;;6.53;4.53;;;18.10;99.90;;;19.34;90.77;98272.72;10355880;28;20255;-77
2023/07/17 05:07:28;;;;;;;5.28;4.65;;;18.40;99.90;;;20.02;86.40;98272.00;10356493;28;20214;-76
2023/07/17 05:12:33;;;;;;;4.53;4.13;;;19.00;99.90;;;20.20;84.79;98276.78;10369716;28;20337;-77
2023/07/17 05:17:36;;;;;;;6.60;5.10;;;19.00;99.90;;;20.17;83.55;98264.63;10371849;28;20276;-77
2023/07/17 05:22:40;;;;;;;5.20;4.18;;;19.10;99.90;;;20.07;85.48;98282.53;10363552;28;20241;-77
2023/07/17 05:27:45;;;;;;;4.93;4.40;;;19.00;99.90;;;20.13;86.13;98260.19;10365218;28;20301;-77
2023/07/17 05:32:49;;;;;;;5.05;4.20;;;19.20;99.90;;;20.22;85.83;98260.41;10365936;28;20261;-77
2023/07/17 05:37:54;;;;;;;7.97;4.22;;;19.20;99.90;;;21.10;82.40;98266.00;10367141;28;20230;-76
2023/07/17 05:42:59;;;;;;;5.68;3.90;;;20.20;99.90;;;22.36;75.81;98265.03;10359337;28;20317;-77
2023/07/17 05:48:02;;;;;;;5.60;4.25;;;21.20;99.90;;;22.84;74.51;98277.09;10372602;28;20227;-77
2023/07/17 05:53:06;;;;;;;4.03;3.50;;;21.70;99.90;;;23.33;70.29;98270.84;10367745;28;20284;-77
2023/07/17 05:58:10;;;;;;;4.25;3.78;;;22.00;99.90;;;23.83;69.28;98286.25;10367609;28;20226;-77
2023/07/17 06:03:14;;;;;;;4.60;3.75;;;22.50;99.90;;;24.92;63.81;98268.09;10365325;28;20556;-77
2023/07/17 06:08:17;;;;;;;4.97;3.83;;;23.50;99.90;;;25.95;57.31;98269.50;10371200;28;20226;-78
2023/07/17 06:13:22;;;;;;;5.95;3.47;;;24.00;99.90;;;26.64;55.28;98263.47;10370503;28;20230;-78
2023/07/17 06:18:25;;;;;;;4.40;3.50;;;24.40;99.90;;;27.42;50.72;98271.25;10369932;28;20221;-78
2023/07/17 06:23:28;;;;;;;3.60;3.22;;;25.10;99.90;;;28.18;48.22;98269.09;10368855;28;20317;-78
2023/07/17 06:28:33;;;;;;;4.05;3.65;;;25.60;99.90;;;27.68;48.63;98279.00;10371821;28;20738;-78
2023/07/17 06:33:36;;;;;;;4.57;3.28;;;25.20;99.90;;;28.26;47.52;98273.44;10372909;28;20221;-77
2023/07/17 06:38:40;;;;;;;4.65;3.80;;;25.50;99.40;;;28.22;45.96;98282.25;10371002;28;20668;-78
2023/07/17 06:43:44;;;;;;;5.63;3.78;;;25.50;98.20;;;28.59;46.70;98286.34;10369138;28;20329;-77
2023/07/17 06:48:47;;;;;;;5.45;3.38;;;25.90;98.60;;;29.13;43.67;98279.78;10369251;28;20304;-78
2023/07/17 06:53:52;;;;;;;3.70;3.40;;;26.50;96.30;;;30.02;41.36;98278.69;10369069;28;20226;-78
2023/07/17 06:58:57;;;;;;;4.82;3.22;;;27.50;94.20;;;30.26;40.29;98279.25;10369284;28;20213;-78
2023/07/17 07:04:00;;;;;;;5.00;3.40;;;27.80;92.90;;;30.67;39.04;98289.13;10364375;28;20226;-78
2023/07/17 07:09:04;;;;;;;4.80;3.22;;;28.20;91.10;;;30.85;38.63;98282.72;10370673;28;20249;-78
2023/07/17 07:14:09;;;;;;;5.50;3.30;;;28.60;91.00;;;31.02;38.64;98289.47;10368475;28;20828;-78
2023/07/17 07:19:12;;;;;;;4.80;3.25;;;28.50;89.80;;;30.70;36.41;98280.31;10370993;28;20218;-78
2023/07/17 07:24:15;;;;;;;4.75;3.35;;;28.10;86.40;;;29.50;39.26;98289.00;10366695;28;20364;-79
2023/07/17 07:29:20;;;;;;;4.93;3.05;;;27.20;89.70;;;28.51;42.67;98291.72;10371574;28;20226;-79
2023/07/17 07:34:23;;;;;;;4.88;3.38;;;26.50;91.80;;;29.37;40.97;98294.41;10375439;28;20229;-79
2023/07/17 07:39:27;;;;;;;4.72;3.17;;;27.40;90.90;;;29.98;39.21;98290.16;10381219;28;20262;-79
2023/07/17 07:44:31;;;;;;;5.57;3.22;;;28.20;89.10;;;30.74;37.48;98296.06;10366540;28;20659;-79
2023/07/17 07:49:35;;;;;;;4.57;3.30;;;28.90;85.30;;;31.02;36.86;98294.75;10370073;28;20250;-79
2023/07/17 07:54:38;;;;;;;5.30;3.47;;;28.80;85.10;;;31.67;35.37;98300.56;10371156;28;20289;-79
2023/07/17 07:59:42;;;;;;;5.88;3.58;;;29.50;81.30;;;30.88;37.67;98301.16;10372306;28;20217;-78
2023/07/17 08:04:46;;;;;;;3.97;3.22;;;28.40;85.60;;;31.09;36.71;98291.97;10370319;28;20244;-78
2023/07/17 08:09:49;;;;;;;4.43;3.55;;;28.90;84.10;;;31.75;35.43;98293.34;10357873;28;20769;-78
2023/07/17 08:14:53;;;;;;;5.88;3.40;;;29.60;81.50;;;31.79;36.77;98300.31;10364517;28;20794;-78
2023/07/17 08:19:57;;;;;;;4.63;3.78;;;29.30;84.50;;;32.19;34.59;98282.72;10367118;28;20605;-79
2023/07/17 08:25:00;;;;;;;4.60;3.70;;;30.10;80.40;;;31.53;32.67;98290.25;10370398;28;20255;-78
2023/07/17 08:30:06;;;;;;;7.18;4.20;;;30.20;74.10;;;29.89;36.59;98287.66;10363049;28;20353;-78
2023/07/17 08:35:10;;;;;;;4.88;4.38;;;28.00;81.30;;;29.88;37.70;98279.78;10359959;28;20539;-79
2023/07/17 08:40:13;;;;;;;5.90;4.50;;;28.50;80.00;;;30.28;35.58;98280.13;10371242;28;20665;-78
2023/07/17 08:45:21;;;;;;;7.22;4.60;;;29.00;76.50;;;30.79;35.32;98280.19;10364363;28;20337;-79
2023/07/17 08:50:28;;;;;;;4.95;4.05;;;29.80;75.50;;;30.72;34.23;98287.31;10365385;28;20222;-79
2023/07/17 08:55:32;;;;;;;5.70;4.45;;;29.40;74.50;;;30.29;33.73;98280.06;10367639;28;20317;-79
2023/07/17 09:00:39;;;;;;;6.25;5.00;;;29.10;72.80;;;30.24;34.09;98281.03;10364963;28;20794;-79
2023/07/17 09:05:44;;;;;;;6.97;4.50;;;29.20;73.00;;;30.25;32.70;98280.16;10365749;28;20229;-79
2023/07/17 09:11:01;;;;;;;5.55;4.57;;;29.20;71.10;;;29.86;33.67;98290.34;10372870;28;20306;-78
2023/07/17 09:16:18;;;;;;;6.32;4.72;;;28.60;72.00;;;29.79;34.01;98288.66;10362466;28;20698;-79
2023/07/17 09:21:22;;;;;;;5.78;4.60;;;28.70;73.00;;;29.76;33.89;98286.06;10365011;28;20753;-78
2023/07/17 09:26:28;;;;;;;6.72;4.68;;;28.90;71.40;;;29.65;32.72;98286.22;10374648;28;20229;-78
2023/07/17 09:31:33;;;;;;;5.50;4.28;;;28.80;67.90;;;30.40;31.21;98289.59;10363853;28;20249;-79
2023/07/17 09:36:37;;;;;;;5.90;4.60;;;29.50;68.00;;;30.78;30.74;98288.97;10365538;28;20225;-79
2023/07/17 09:41:40;;;;;;;5.95;4.57;;;30.20;65.00;;;30.88;30.36;98281.81;10371810;28;20236;-78
2023/07/17 09:46:46;;;;;;;6.72;5.05;;;30.20;64.30;;;31.16;29.53;98282.16;10368968;28;20218;-79
2023/07/17 09:51:51;;;;;;;4.93;4.40;;;30.30;63.50;;;30.48;30.48;98272.75;10366120;28;20230;-79
2023/07/17 09:56:56;;;;;;;5.47;4.97;;;29.40;65.80;;;30.77;30.11;98271.41;10372431;28;20723;-78
2023/07/17 10:02:02;;;;;;;4.80;4.20;;;29.60;64.60;;;30.97;29.88;98266.66;10358011;28;20248;-79
2023/07/17 10:07:08;;;;;;;6.65;4.47;;;29.90;63.50;;;31.05;29.57;98265.63;10374902;28;20256;-78
2023/07/17 10:12:12;;;;;;;4.90;4.28;;;30.10;62.80;;;30.94;29.96;98271.13;10370895;28;20724;-78
2023/07/17 10:17:30;;;;;;;5.85;4.57;;;30.20;62.80;;;30.67;30.85;98267.16;10369260;28;20238;-80
2023/07/17 10:22:38;;;;;;;5.85;4.70;;;29.70;64.90;;;30.49;30.02;98269.22;10363212;28;20237;-78
2023/07/17 10:27:45;;;;;;;5.30;4.60;;;29.40;63.30;;;30.35;31.11;98276.47;10366492;28;20222;-78
2023/07/17 10:33:04;;;;;;;5.25;4.60;;;29.10;64.40;;;29.68;30.54;98267.75;10369451;28;20673;-78
2023/07/17 10:38:11;;;;;;;6.97;5.10;;;28.40;64.20;;;29.36;31.94;98257.53;10367348;28;20222;-78
2023/07/17 10:43:18;;;;;;;5.15;4.63;;;28.40;65.90;;;29.67;32.27;98258.06;10370243;28;20221;-78
2023/07/17 10:48:26;;;;;;;6.75;5.25;;;28.60;66.80;;;29.91;31.12;98248.13;10371760;28;20257;-78
2023/07/17 10:53:29;;;;;;;5.93;4.93;;;28.90;64.30;;;30.06;31.06;98230.28;10370736;28;20245;-79
2023/07/17 10:58:32;;;;;;;5.50;4.88;;;29.30;63.60;;;30.21;30.47;98236.22;10366834;28;20242;-78
2023/07/17 11:03:38;;;;;;;5.47;4.97;;;29.60;62.20;;;30.28;29.75;98227.38;10372027;28;20256;-79
2023/07/17 11:08:42;;;;;;;4.50;4.15;;;29.40;61.60;;;30.17;30.03;98221.34;10368352;28;20281;-79
2023/07/17 11:13:46;;;;;;;5.72;4.72;;;29.30;62.30;;;29.92;29.79;98221.72;10374007;28;20240;-79
2023/07/17 11:18:52;;;;;;;5.63;4.95;;;29.30;61.60;;;29.78;30.27;98221.91;10372952;28;20761;-78
2023/07/17 11:23:58;;;;;;;5.35;4.78;;;29.10;61.80;;;29.43;31.46;98225.00;10369453;28;20321;-78
2023/07/17 11:29:02;;;;;;;6.50;4.93;;;28.40;63.50;;;29.34;32.05;98223.34;10361232;28;20264;-78
2023/07/17 11:34:10;;;;;;;5.68;4.90;;;28.30;64.70;;;29.10;32.62;98227.16;10371568;28;20230;-78
2023/07/17 11:39:15;;;;;;;6.18;4.85;;;28.10;65.60;;;28.79;32.19;98230.94;10370633;28;20316;-78
2023/07/17 11:44:24;;;;;;;6.03;5.15;;;27.90;65.10;;;28.29;32.60;98219.94;10367545;28;20244;-78
2023/07/17 11:49:29;;;;;;;5.75;4.95;;;27.50;65.20;;;28.02;34.54;98215.78;10367210;28;20676;-77
2023/07/17 11:54:43;;;;;;;5.85;5.13;;;27.30;67.20;;;28.32;33.08;98198.00;10368596;28;20293;-78
2023/07/17 11:59:46;;;;;;;6.75;5.50;;;27.50;66.30;;;28.73;33.48;98201.19;10368504;28;20297;-79
2023/07/17 12:04:51;;;;;;;5.63;5.00;;;27.90;66.00;;;29.29;32.40;98201.44;10362670;28;20223;-78
2023/07/17 12:09:55;;;;;;;5.28;4.72;;;28.30;66.10;;;29.84;31.50;98194.59;10373635;28;20309;-77
2023/07/17 12:14:58;;;;;;;6.15;5.18;;;28.90;63.80;;;30.14;31.35;98190.63;10367204;28;20237;-77
2023/07/17 12:20:03;;;;;;;5.03;4.55;;;29.40;64.30;;;30.34;31.61;98195.59;10361139;28;20281;-77
2023/07/17 12:25:08;;;;;;;5.47;4.80;;;29.60;63.90;;;30.20;30.32;98192.28;10368055;28;20225;-78
2023/07/17 12:30:12;;;;;;;6.53;5.20;;;29.30;62.30;;;29.85;31.50;98183.16;10364304;28;20234;-79
2023/07/17 12:35:17;;;;;;;5.55;5.05;;;28.90;64.10;;;29.98;31.00;98181.19;10361537;28;20313;-78
2023/07/17 12:40:20;;;;;;;6.53;5.10;;;28.90;63.40;;;29.93;29.94;98169.84;10371980;28;20232;-78
2023/07/17 12:45:23;;;;;;;5.68;5.20;;;29.10;61.60;;;29.35;32.64;98158.34;10366164;28;20605;-77
2023/07/17 12:50:27;;;;;;;6.22;5.40;;;28.50;64.80;;;29.20;32.45;98180.50;10367442;28;20221;-78
2023/07/17 12:55:31;;;;;;;6.13;4.93;;;28.30;65.30;;;29.33;32.07;98161.03;10373218;28;20317;-78
2023/07/17 13:00:34;;;;;;;6.97;4.88;;;28.40;64.80;;;29.62;32.16;98158.03;10366092;28;20305;-78
2023/07/17 13:05:38;;;;;;;6.88;5.05;;;28.60;64.90;;;29.68;32.54;98156.19;10365430;28;20295;-77
2023/07/17 13:10:42;;;;;;;5.43;4.93;;;28.90;64.70;;;29.84;31.08;98157.69;10365435;28;20288;-77
2023/07/17 13:15:45;;;;;;;7.70;5.20;;;28.90;62.70;;;29.98;31.26;98155.69;10364520;28;20540;-78
2023/07/17 13:20:49;;;;;;;6.88;5.03;;;28.90;64.10;;;29.95;31.23;98150.47;10364421;28;20229;-78
2023/07/17 13:25:52;;;;;;;6.18;4.85;;;29.00;63.50;;;29.97;31.04;98138.16;10368830;28;20246;-78
2023/07/17 13:30:55;;;;;;;6.30;5.65;;;29.00;63.20;;;30.04;31.54;98139.78;10373210;28;20230;-78
2023/07/17 13:36:20;;;;;;;5.97;5.35;;;29.20;63.50;;;29.72;31.77;98145.56;10370287;28;20217;-78
2023/07/17 13:41:43;;;;;;;7.95;5.35;;;28.90;64.10;;;29.45;32.79;98148.59;10379383;28;20221;-77
2023/07/17 13:46:48;;;;;;;6.20;5.60;;;28.50;65.30;;;29.41;33.73;98142.47;10357239;28;20229;-78
2023/07/17 13:51:53;;;;;;;6.00;5.40;;;28.50;66.70;;;29.36;33.70;98139.91;10364232;28;20241;-78
2023/07/17 13:56:56;;;;;;;6.53;5.80;;;28.30;66.70;;;29.35;33.42;98142.56;10363483;28;20293;-78
2023/07/17 14:02:02;;;;;;;6.07;5.47;;;28.20;66.40;;;29.42;33.64;98139.81;10370276;28;20749;-78
2023/07/17 14:07:08;;;;;;;5.97;5.38;;;28.30;67.20;;;29.37;34.16;98136.38;10364809;28;20234;-78
2023/07/17 14:12:11;;;;;;;5.63;5.10;;;28.30;67.40;;;29.28;33.69;98130.38;10368638;28;20218;-78
2023/07/17 14:17:15;;;;;;;6.60;4.93;;;28.20;67.50;;;29.34;34.58;98140.81;10363146;28;20324;-78
2023/07/17 14:22:19;;;;;;;5.45;5.05;;;28.30;68.10;;;29.16;34.98;98148.06;10354213;28;20232;-79
2023/07/17 14:27:22;;;;;;;6.93;5.57;;;28.10;69.00;;;28.60;35.25;98136.41;10367143;28;20236;-78
2023/07/17 14:32:25;;;;;;;6.38;4.97;;;27.70;69.70;;;28.34;36.53;98138.41;10371727;28;20375;-77
2023/07/17 14:37:30;;;;;;;6.60;5.53;;;27.30;71.70;;;28.35;36.84;98137.50;10354932;28;20309;-79
2023/07/17 14:42:33;;;;;;;6.78;5.38;;;27.40;71.10;;;28.40;37.06;98143.59;10359314;28;20317;-76
2023/07/17 14:47:37;;;;;;;6.65;5.30;;;27.50;72.40;;;28.26;36.71;98146.34;10357481;28;20232;-78
2023/07/17 14:52:41;;;;;;;5.95;5.07;;;27.30;71.50;;;28.22;36.75;98140.25;10357970;28;20233;-77
2023/07/17 14:57:44;;;;;;;6.05;5.15;;;27.30;71.70;;;28.48;36.83;98136.53;10372294;28;20249;-78
2023/07/17 15:02:49;;;;;;;6.35;5.32;;;27.50;72.20;;;28.59;36.39;98134.69;10375616;28;20320;-77
2023/07/17 15:07:53;;;;;;;4.97;4.47;;;27.60;71.60;;;28.50;36.55;98138.28;10380328;28;20234;-78
2023/07/17 15:12:57;;;;;;;5.88;4.85;;;27.40;71.00;;;28.60;36.60;98133.78;10374193;28;20222;-78
2023/07/17 15:18:00;;;;;;;6.32;5.03;;;27.50;72.00;;;28.39;36.91;98134.84;10370653;28;20261;-77
2023/07/17 15:23:05;;;;;;;6.53;4.93;;;27.30;72.80;;;28.43;36.80;98133.06;10369696;28;20270;-78
2023/07/17 15:28:08;;;;;;;5.75;4.90;;;27.30;72.00;;;28.52;37.39;98128.59;10374408;28;20226;-79
2023/07/17 15:33:11;;;;;;;6.72;5.13;;;27.40;72.40;;;28.49;36.48;98133.00;10367153;28;20242;-78
2023/07/17 15:38:16;;;;;;;6.65;5.18;;;27.30;72.30;;;28.12;37.18;98128.06;10360992;28;20613;-78
2023/07/17 15:43:19;;;;;;;5.88;4.78;;;27.10;72.40;;;27.81;37.41;98128.34;10351156;28;20342;-78
2023/07/17 15:48:22;;;;;;;6.13;4.63;;;26.80;72.50;;;27.63;38.53;98123.16;10363563;28;20349;-78
2023/07/17 15:53:27;;;;;;;5.40;4.60;;;26.70;74.30;;;27.87;38.30;98129.16;10338369;28;20218;-78
2023/07/17 15:58:30;;;;;;;6.53;5.15;;;26.80;73.90;;;27.87;38.53;98132.66;10336435;28;20280;-77
2023/07/17 16:03:33;;;;;;;5.28;4.72;;;26.90;74.30;;;27.98;37.25;98125.53;10342018;28;20713;-77
2023/07/17 16:08:37;;;;;;;5.60;4.43;;;27.00;73.00;;;28.03;37.96;98136.03;10340097;28;20224;-77
2023/07/17 16:13:41;;;;;;;5.47;4.93;;;27.00;73.60;;;27.88;38.88;98128.28;10342482;28;20238;-77
2023/07/17 16:18:44;;;;;;;5.15;4.43;;;26.80;75.00;;;27.72;38.20;98136.22;10338027;28;20731;-77
2023/07/17 16:23:49;;;;;;;5.38;4.88;;;26.80;73.30;;;27.75;38.10;98141.47;10338877;28;20319;-77
2023/07/17 16:28:52;;;;;;;4.97;4.38;;;26.80;73.40;;;27.82;38.20;98148.47;10350685;28;20235;-78
2023/07/17 16:33:55;;;;;;;6.18;4.47;;;26.90;73.20;;;27.91;38.34;98138.78;10360641;28;20245;-78
2023/07/17 16:39:00;;;;;;;7.63;4.55;;;26.90;73.50;;;28.15;37.74;98140.31;10360244;28;20234;-79
2023/07/17 16:44:03;;;;;;;7.10;4.80;;;27.10;72.90;;;28.00;38.11;98139.56;10352052;28;20288;-78
2023/07/17 16:49:06;;;;;;;6.53;5.45;;;27.00;73.30;;;27.83;37.64;98151.97;10348154;28;20240;-79
2023/07/17 16:54:11;;;;;;;8.60;5.22;;;26.80;72.70;;;27.46;37.70;98156.53;10350560;28;20672;-77
2023/07/17 16:59:14;;;;;;;5.63;5.03;;;26.50;72.50;;;27.51;37.76;98165.28;10355176;28;20233;-77
2023/07/17 17:04:18;;;;;;;6.50;5.30;;;26.50;73.00;;;27.52;38.10;98159.13;10349872;28;20703;-78
2023/07/17 17:09:24;;;;;;;5.85;4.75;;;26.60;73.20;;;27.40;38.46;98155.69;10368008;28;20225;-79
2023/07/17 17:14:27;;;;;;;6.65;5.00;;;26.40;73.80;;;27.17;38.70;98166.31;10362929;28;20229;-79
2023/07/17 17:19:30;;;;;;;6.07;5.03;;;26.20;73.70;;;27.02;38.97;98176.84;10359352;28;20903;-78
2023/07/17 17:24:34;;;;;;;6.25;4.80;;;26.10;73.90;;;27.32;38.17;98196.00;10356054;28;20230;-77
2023/07/17 17:29:38;;;;;;;5.95;5.10;;;26.30;73.90;;;27.15;38.63;98188.16;10348409;28;20230;-78
2023/07/17 17:34:41;;;;;;;5.80;4.65;;;26.20;73.80;;;26.77;38.80;98196.16;10357805;28;20232;-78
2023/07/17 17:39:45;;;;;;;5.32;4.70;;;25.90;73.80;;;26.58;39.57;98195.28;10368678;28;20236;-77
2023/07/17 17:44:48;;;;;;;5.00;4.20;;;25.60;75.20;;;26.64;39.44;98200.53;10359420;28;20226;-78
2023/07/17 17:49:51;;;;;;;5.15;4.57;;;25.60;74.90;;;26.59;39.21;98189.19;10357236;28;20257;-77
2023/07/17 17:54:56;;;;;;;4.30;3.92;;;25.50;74.60;;;26.23;40.29;98185.69;10352063;28;20243;-78
2023/07/17 18:00:00;;;;;;;6.25;4.80;;;25.30;76.80;;;26.19;40.17;98194.44;10350533;28;20233;-76
2023/07/17 18:05:03;;;;;;;7.63;5.00;;;25.10;76.20;;;25.91;40.33;98207.50;10358171;28;20313;-76
2023/07/17 18:10:09;;;;;;;5.18;4.50;;;25.00;76.20;;;25.82;40.44;98203.13;10337729;28;20727;-77
2023/07/17 18:15:12;;;;;;;5.25;3.80;;;24.80;76.30;;;25.67;41.84;98210.03;10352339;28;20723;-76
2023/07/17 18:20:15;;;;;;;5.53;4.25;;;24.70;78.10;;;25.54;41.68;98222.22;10350856;28;20622;-78
2023/07/17 18:25:20;;;;;;;5.25;4.20;;;24.60;77.20;;;25.39;41.79;98223.91;10352460;28;20325;-77
2023/07/17 18:30:23;;;;;;;5.60;4.30;;;24.40;77.60;;;25.39;41.50;98230.91;10343176;28;20237;-76
2023/07/17 18:35:26;;;;;;;4.45;4.07;;;24.40;77.60;;;25.14;40.80;98228.16;10351605;28;20298;-77
2023/07/17 18:40:31;;;;;;;6.28;3.53;;;24.20;77.20;;;24.99;41.46;98238.50;10348443;28;20222;-76
2023/07/17 18:45:34;;;;;;;4.65;3.90;;;24.00;76.50;;;24.80;41.55;98240.13;10339624;28;20321;-75
2023/07/17 18:50:37;;;;;;;4.38;3.65;;;23.90;77.80;;;24.68;41.78;98251.38;10339222;28;20234;-76
2023/07/17 18:55:41;;;;;;;4.40;3.75;;;23.70;77.50;;;24.58;41.89;98265.25;10337421;28;20241;-76
2023/07/17 19:00:45;;;;;;;5.93;3.90;;;23.60;78.30;;;24.47;42.13;98259.94;10357183;28;20233;-76
2023/07/17 19:05:49;;;;;;;4.05;3.70;;;23.50;78.40;;;24.27;43.01;98271.94;10340067;28;20726;-76
2023/07/17 19:10:53;;;;;;;4.97;3.75;;;23.30;80.00;;;24.13;43.52;98284.84;10342134;28;20250;-77
2023/07/17 19:15:57;;;;;;;5.32;3.70;;;23.10;81.00;;;23.95;44.36;98284.66;10345974;28;20238;-77
2023/07/17 19:21:02;;;;;;;3.90;3.50;;;22.90;82.50;;;23.74;43.80;98288.78;10343013;28;20735;-77
2023/07/17 19:26:06;;;;;;;4.80;3.42;;;22.70;81.10;;;23.63;45.93;98300.78;10344560;28;20245;-77
2023/07/17 19:31:09;;;;;;;3.80;3.45;;;22.60;83.80;;;23.44;45.68;98304.91;10343621;28;20231;-77
2023/07/17 19:36:12;;;;;;;4.30;3.70;;;22.40;84.30;;;23.28;45.87;98316.88;10338106;28;20308;-76
2023/07/17 19:41:17;;;;;;;3.83;3.53;;;22.30;84.50;;;23.15;46.87;98320.19;10340011;28;20738;-76
2023/07/17 19:46:21;;;;;;;4.55;3.47;;;22.10;86.60;;;22.87;47.63;98329.28;10337755;28;20242;-77
2023/07/17 19:51:25;;;;;;;4.22;3.75;;;21.80;87.50;;;22.67;49.01;98332.44;10348024;28;20234;-77
2023/07/17 19:56:29;;;;;;;3.97;3.58;;;21.60;90.20;;;22.45;49.37;98344.19;10352921;28;20795;-77
2023/07/17 20:01:32;;;;;;;4.68;3.75;;;21.40;90.20;;;22.28;50.17;98345.63;10348760;28;20234;-76
2023/07/17 20:06:35;;;;;;;4.75;4.00;;;21.20;91.20;;;22.10;51.69;98353.06;10358848;28;20325;-76
2023/07/17 20:11:40;;;;;;;4.88;3.70;;;21.00;92.30;;;22.02;52.68;98351.19;10358025;28;20256;-75
2023/07/17 20:16:43;;;;;;;5.18;3.97;;;20.90;93.10;;;21.75;54.68;98354.13;10356247;28;20310;-77
2023/07/17 20:21:46;;;;;;;5.15;3.67;;;20.70;94.60;;;21.64;54.65;98357.34;10353162;28;20236;-76
2023/07/17 20:26:51;;;;;;;4.45;3.67;;;20.50;95.00;;;21.44;55.99;98370.78;10359651;28;20319;-76
2023/07/17 20:31:54;;;;;;;6.85;4.07;;;20.40;95.50;;;21.21;57.89;98374.56;10355675;28;20222;-76
2023/07/17 20:36:57;;;;;;;4.68;4.20;;;20.20;96.80;;;21.15;58.12;98377.91;10362385;28;20613;-76
2023/07/17 20:42:03;;;;;;;6.22;4.30;;;20.00;97.70;;;20.88;59.75;98391.09;10362494;28;20230;-75
2023/07/17 20:47:07;;;;;;;5.22;4.22;;;19.90;98.60;;;20.96;58.87;98386.97;10356464;28;20230;-76
2023/07/17 20:52:10;;;;;;;3.97;3.58;;;19.80;98.60;;;20.85;57.62;98394.50;10350737;28;20230;-76
2023/07/17 20:57:14;;;;;;;4.53;3.53;;;19.70;97.90;;;20.63;57.89;98399.97;10358244;28;20225;-76
2023/07/17 21:02:17;;;;;;;3.92;3.53;;;19.50;97.90;;;20.40;57.99;98413.22;10354168;28;20234;-75
2023/07/17 21:07:20;;;;;;;4.40;3.78;;;19.40;97.70;;;20.38;57.49;98412.31;10357281;28;20236;-76